D/T METAR WX W/DIR W/SPE G/SPE TEMP DEWP
23/03/19 12:00 EIKY 231200Z VRB02KT 9999 SCT044 09/M01 Q1035 N (0°) 2.3mph 9°C -1°C
23/03/19 11:30 EIKY 231130Z VRB02KT 9999 BKN044 09/M00 Q1035 N (0°) 2.3mph 9°C 0°C
23/03/19 11:00 EIKY 231100Z VRB02KT 9999 BKN036 09/03 Q1035 N (0°) 2.3mph 9°C 3°C
23/03/19 10:30 EIKY 231030Z VRB01KT 9999 FEW028 07/03 Q1035 N (0°) 1.2mph 7°C 3°C
23/03/19 10:00 EIKY 231000Z VRB01KT 9999 OVC047 07/04 Q1035 N (0°) 1.2mph 7°C 4°C
23/03/19 09:00 EIKY 230900Z 09002KT 9999 OVC047 04/03 Q1034 E (90°) 2.3mph 4°C 3°C
23/03/19 08:30 EIKY 230830Z 00000KT 9999 OVC046 04/02 Q1034 N (0°) 4°C 2°C
23/03/19 08:00 EIKY 230800Z VRB02KT 9999 FEW045 03/02 Q1034 N (0°) 2.3mph 3°C 2°C
23/03/19 07:00 EIKY 230700Z 10002KT 9999 FEW041 01/00 Q1034 E (100°) 2.3mph 1°C 0°C
22/03/19 20:00 EIKY 222000Z 30004KT 260V340 9999 SCT035 BKN041 07/03 Q1029 WNW (300°) 4.6mph 7°C 3°C
22/03/19 19:30 EIKY 221930Z 29005KT 250V310 9999 SCT031 07/02 Q1029 WNW (290°) 5.8mph 7°C 2°C
22/03/19 19:00 EIKY 221900Z 28004KT 260V320 9999 FEW039 08/02 Q1028 W (280°) 4.6mph 8°C 2°C
22/03/19 18:30 EIKY 221830Z 30005KT 260V330 9999 SCT036 08/03 Q1028 WNW (300°) 5.8mph 8°C 3°C
22/03/19 18:00 EIKY 221800Z 31007KT 270V340 9999 FEW033 SCT038 09/02 Q1027 NW (310°) 8.1mph 9°C 2°C
22/03/19 17:30 EIKY 221730Z 31009KT 9999 SCT033 09/03 Q1027 NW (310°) 10.4mph 9°C 3°C
22/03/19 17:00 EIKY 221700Z 30010KT 270V330 9999 SCT033 09/04 Q1027 WNW (300°) 11.5mph 9°C 4°C
22/03/19 16:30 EIKY 221630Z 31008KT 240V350 9999 SCT036 10/03 Q1026 NW (310°) 9.2mph 10°C 3°C
22/03/19 16:00 EIKY 221600Z 31011KT 280V340 9999 SCT038 10/03 Q1026 NW (310°) 12.7mph 10°C 3°C
22/03/19 15:30 EIKY 221530Z 31011KT 270V330 9999 SCT033 10/04 Q1026 NW (310°) 12.7mph 10°C 4°C
22/03/19 15:00 EIKY 221500Z 30012G22KT 270V330 9999 SCT034 10/06 Q1025 WNW (300°) 13.8mph 25.3mph 10°C 6°C
22/03/19 14:00 EIKY 221400Z 30009KT 250V340 9999 SCT029 OVC035 10/05 Q1025 WNW (300°) 10.4mph 10°C 5°C
22/03/19 13:30 EIKY 221330Z 29007KT 250V330 9999 FEW021 BKN032 10/07 Q1024 WNW (290°) 8.1mph 10°C 7°C
22/03/19 12:30 EIKY 221230Z 29004KT 250V340 9999 FEW012 SCT020 OVC031 10/08 Q1024 RERA WNW (290°) 4.6mph 10°C 8°C
22/03/19 12:00 EIKY 221200Z 31009KT 270V340 4100 -RA OVC007 09/08 Q1024 RESHRA -RA NW (310°) 10.4mph 9°C 8°C
22/03/19 11:30 EIKY 221130Z 29006KT 250V340 9000 -RA OVC010 09/08 Q1023 -RA WNW (290°) 6.9mph 9°C 8°C
22/03/19 10:00 EIKY 221000Z 23012KT 8000 RA BKN016 11/10 Q1021 RA SW (230°) 13.8mph 11°C 10°C
22/03/19 09:30 EIKY 220930Z 21010KT 9999 RA SCT013 BKN018 11/09 Q1021 RA SSW (210°) 11.5mph 11°C 9°C
22/03/19 09:00 EIKY 220900Z 21012KT 9999 -RA SCT015 BKN025 11/09 Q1021 -RA SSW (210°) 13.8mph 11°C 9°C
22/03/19 08:30 EIKY 220830Z 21012KT 9999 -RA SCT015 BKN025 11/08 Q1021 -RA SSW (210°) 13.8mph 11°C 8°C
22/03/19 08:00 EIKY 220800Z 22011KT 9999 FEW013 BKN025 11/08 Q1021 SW (220°) 12.7mph 11°C 8°C
22/03/19 07:30 EIKY 220730Z 22011KT 9999 FEW013 BKN023 11/08 Q1020 SW (220°) 12.7mph 11°C 8°C
22/03/19 07:00 EIKY 220700Z 23008KT 200V260 9999 FEW013 BKN022 11/08 Q1020 SW (230°) 9.2mph 11°C 8°C
21/03/19 19:30 EIKY 211930Z 18010KT 9999 SCT025 BKN033 11/08 Q1027 S (180°) 11.5mph 11°C 8°C
21/03/19 19:00 EIKY 211900Z 14005KT 110V180 9999 FEW026 SCT030 OVC035 11/08 Q1027 SE (140°) 5.8mph 11°C 8°C
21/03/19 18:30 EIKY 211830Z VRB02KT 9999 BKN025 12/08 Q1027 N (0°) 2.3mph 12°C 8°C
21/03/19 18:00 EIKY 211800Z 21005KT 180V250 9999 BKN027 12/08 Q1028 SSW (210°) 5.8mph 12°C 8°C
21/03/19 17:30 EIKY 211730Z 20011KT 9999 BKN027 12/08 Q1028 SSW (200°) 12.7mph 12°C 8°C
21/03/19 17:00 EIKY 211700Z 19009KT 9999 BKN025 12/08 Q1028 S (190°) 10.4mph 12°C 8°C
21/03/19 16:30 EIKY 211630Z 19010KT 9999 BKN025 12/09 Q1028 S (190°) 11.5mph 12°C 9°C
21/03/19 16:00 EIKY 211600Z 20009KT 9999 BKN026 13/09 Q1028 SSW (200°) 10.4mph 13°C 9°C
21/03/19 15:30 EIKY 211530Z 20012KT 170V230 9999 BKN025 13/09 Q1028 SSW (200°) 13.8mph 13°C 9°C
21/03/19 15:00 EIKY 211500Z 20010KT 170V230 9999 SCT025 15/09 Q1029 SSW (200°) 11.5mph 15°C 9°C
21/03/19 14:30 EIKY 211430Z 19010KT 150V220 9999 SCT025 14/09 Q1029 S (190°) 11.5mph 14°C 9°C
21/03/19 14:00 EIKY 211400Z 21011KT 9999 SCT024 14/09 Q1030 SSW (210°) 12.7mph 14°C 9°C
21/03/19 13:30 EIKY 211330Z 21008KT 160V230 9999 BKN024 14/09 Q1030 SSW (210°) 9.2mph 14°C 9°C
21/03/19 13:00 EIKY 211300Z 21008KT 180V240 9999 BKN024 13/09 Q1030 SSW (210°) 9.2mph 13°C 9°C
21/03/19 12:30 EIKY 211230Z 19008KT 160V220 9999 BKN022 13/09 Q1031 S (190°) 9.2mph 13°C 9°C
21/03/19 12:00 EIKY 211200Z 19006KT 150V220 9999 FEW018 BKN020 13/09 Q1031 S (190°) 6.9mph 13°C 9°C
21/03/19 11:30 EIKY 211130Z 28004KT 230V320 9999 BKN019 12/09 Q1031 W (280°) 4.6mph 12°C 9°C
21/03/19 11:00 EIKY 211100Z 22006KT 190V260 9999 BKN020 12/09 Q1031 SW (220°) 6.9mph 12°C 9°C
21/03/19 10:30 EIKY 211030Z 23005KT 200V260 9999 BKN019 12/09 Q1032 SW (230°) 5.8mph 12°C 9°C
21/03/19 10:00 EIKY 211000Z 21005KT 170V260 9999 BK018 12/09 Q1032 SSW (210°) 5.8mph 12°C 9°C
21/03/19 09:30 EIKY 210930Z 22004KT 9999 BKN016 12/09 Q1032 SW (220°) 4.6mph 12°C 9°C
21/03/19 09:00 EIKY 210900Z VRB02KT 9999 BKN019 11/08 Q1032 N (0°) 2.3mph 11°C 8°C
21/03/19 08:30 EIKY 210830Z 25003KT 220V280 9999 FEW012 BKN021 11/09 Q1032 WSW (250°) 3.5mph 11°C 9°C
21/03/19 08:00 EIKY 210800Z 22004KT 170V270 9999 FEW014 BKN019 10/09 Q1032 SW (220°) 4.6mph 10°C 9°C
21/03/19 07:30 EIKY 210730Z VRB02KT 9999 FEW010 BKN018 10/09 Q1032 N (0°) 2.3mph 10°C 9°C
21/03/19 07:00 EIKY 210700Z 00000KT 9999 FEW014 BKN018 10/09 Q1032 N (0°) 10°C 9°C
20/03/19 19:30 EIKY 201930Z VRB02KT 9999 BKN009 OVC014 12/09 Q1030 N (0°) 2.3mph 12°C 9°C
20/03/19 19:00 EIKY 201900Z 27004KT 220V320 9999 BKN010 BKN024 12/10 Q1030 W (270°) 4.6mph 12°C 10°C
20/03/19 18:30 EIKY 201830Z 27006KT 240V300 9999 SCT010 OVC020 11/10 Q1030 W (270°) 6.9mph 11°C 10°C
20/03/19 18:00 EIKY 201800Z 27007KT 240V310 9999 OVC009 11/10 Q1030 W (270°) 8.1mph 11°C 10°C
20/03/19 17:30 EIKY 201730Z 26009KT 9999 SCT006 BKN008 12/10 Q1030 W (260°) 10.4mph 12°C 10°C
20/03/19 17:00 EIKY 201700Z 26014KT 9999 BKN006 OVC013 12/11 Q1030 W (260°) 16.1mph 12°C 11°C
20/03/19 16:30 EIKY 201630Z 26013KT 9999 BKN006 BKN016 12/11 Q1029 W (260°) 15.0mph 12°C 11°C
20/03/19 16:00 EIKY 201600Z 26012KT 9999 BKN008 BKN016 13/11 Q1029 W (260°) 13.8mph 13°C 11°C
20/03/19 15:30 EIKY 201530Z 28009KT 240V320 9999 -RA SCT008 BKN017 BKN023 13/11 Q1029 -RA W (280°) 10.4mph 13°C 11°C
20/03/19 15:00 EIKY 201500Z 28004KT 220V010 9999 BKN014 BKN020 BKN033 14/12 Q1029 W (280°) 4.6mph 14°C 12°C
20/03/19 14:00 EIKY 201400Z 26008KT 230V300 9999 SCT014 BKN017 BKN029 14/11 Q1030 W (260°) 9.2mph 14°C 11°C
20/03/19 13:30 EIKY 201330Z 28004KT 220V360 9999 SCT010 BKN017 BKN033 14/12 Q1030 W (280°) 4.6mph 14°C 12°C
20/03/19 13:00 EIKY 201300Z 28003KT 240V320 9999 SCT010 BKN019 OVC033 14/12 Q1030 W (280°) 3.5mph 14°C 12°C
20/03/19 12:30 EIKY 201230Z 31005KT 270V360 9999 FEW010 SCT016 BKN033 14/12 Q1030 NW (310°) 5.8mph 14°C 12°C
20/03/19 12:00 EIKY 201200Z 33004KT 290V360 9999 SCT008 BKN019 13/12 Q1030 NNW (330°) 4.6mph 13°C 12°C
20/03/19 11:30 EIKY 201130Z VRB02KT 9999 BKN008 13/11 Q1030 N (0°) 2.3mph 13°C 11°C
20/03/19 11:00 EIKY 201100Z VRB02KT 9999 BKN008 12/11 Q1030 N (0°) 2.3mph 12°C 11°C
20/03/19 09:30 EIKY 200930Z VRB01KT 9999 BKN013 10/10 Q1030 N (0°) 1.2mph 10°C 10°C
20/03/19 09:00 EIKY 200900Z VRB02KT 9999 BKN012 BKN015 09/09 Q1030 N (0°) 2.3mph 9°C 9°C
20/03/19 08:30 EIKY 200830Z VRB02KT 9999 BKN011 09/09 Q1030 N (0°) 2.3mph 9°C 9°C
20/03/19 08:00 EIKY 200800Z VRB02KT 9999 BKN010 08/08 Q1030 N (0°) 2.3mph 8°C 8°C
20/03/19 07:30 EIKY 200730Z 10002KT 9999 BKN010 BKN012 08/07 Q1029 E (100°) 2.3mph 8°C 7°C
20/03/19 07:00 EIKY 200700Z VRB02KT 9999 BKN012 BKN022 07/07 Q1029 N (0°) 2.3mph 7°C 7°C
20/03/19 06:30 EIKY 200630Z 09003KT 040V120 9999 FEW009 BKN021 07/07 Q1029 E (90°) 3.5mph 7°C 7°C
20/03/19 06:00 EIKY 200600Z 11002KT 9999 FEW009 07/07 Q1029 ESE (110°) 2.3mph 7°C 7°C
19/03/19 19:30 EIKY 191930Z 28004KT 240V310 9999 BKN014 09/08 Q1028 W (280°) 4.6mph 9°C 8°C
19/03/19 19:00 EIKY 191900Z 26006KT 9999 FEW014 SCT016 09/08 Q1028 W (260°) 6.9mph 9°C 8°C
19/03/19 18:30 EIKY 191830Z 27006KT 240V320 9999 SCT014 SCT031 10/08 Q1028 W (270°) 6.9mph 10°C 8°C
19/03/19 18:00 EIKY 191800Z 26009KT 9999 FEW011 SCT021 11/08 Q1027 W (260°) 10.4mph 11°C 8°C
19/03/19 17:30 EIKY 191730Z 26010KT 9999 SCT013 11/09 Q1027 W (260°) 11.5mph 11°C 9°C
19/03/19 17:00 EIKY 191700Z 26009KT 9999 BKN015 12/09 Q1027 W (260°) 10.4mph 12°C 9°C
19/03/19 16:30 EIKY 191630Z 26008KT 240V320 9999 BKN010 BKN022 11/09 Q1027 W (260°) 9.2mph 11°C 9°C
19/03/19 16:00 EIKY 191600Z 26013KT 9999 BKN015 11/09 Q1027 W (260°) 15.0mph 11°C 9°C
19/03/19 15:30 EIKY 191530Z 27011KT 240V310 9999 FEW011 SCT018 12/09 Q1027 W (270°) 12.7mph 12°C 9°C
19/03/19 15:00 EIKY 191500Z 27012KT 240V310 9999 FEW023 12/09 Q1026 W (270°) 13.8mph 12°C 9°C
19/03/19 14:30 EIKY 191430Z 28008KT 230V320 9999 FEW023 13/10 Q1026 W (280°) 9.2mph 13°C 10°C
19/03/19 14:00 EIKY 191400Z 26012KT 9999 FEW010 13/10 Q1026 W (260°) 13.8mph 13°C 10°C
19/03/19 13:30 EIKY 191330Z 27009KT 250V320 9999 SCT016 12/10 Q1026 W (270°) 10.4mph 12°C 10°C
19/03/19 13:00 EIKY 191300Z 26011KT 240V310 9999 FEW010 SCT012 13/10 Q1026 W (260°) 12.7mph 13°C 10°C
19/03/19 12:30 EIKY 191230Z 26011KT 9999 FEW011 BKN019 13/11 Q1025 W (260°) 12.7mph 13°C 11°C
19/03/19 12:00 EIKY 191200Z 26010KT 9999 SCT014 BKN016 13/10 Q1025 W (260°) 11.5mph 13°C 10°C
19/03/19 11:30 EIKY 191130Z 26011KT 240V300 9999 SCT010 BKN014 12/10 Q1026 W (260°) 12.7mph 12°C 10°C
19/03/19 11:00 EIKY 191100Z 26009KT 240V310 9999 BKN008 12/11 Q1026 W (260°) 10.4mph 12°C 11°C
19/03/19 10:30 EIKY 191030Z 27007KT 250V310 9999 BKN011 BKN014 OVC027 12/10 Q1025 W (270°) 8.1mph 12°C 10°C
19/03/19 10:00 EIKY 191000Z 25011KT 9999 BKN011 OVC031 12/10 Q1025 WSW (250°) 12.7mph 12°C 10°C
19/03/19 09:30 EIKY 190930Z 27008KT 230V300 9999 FEW005 BKN009 OVC023 11/10 Q1025 W (270°) 9.2mph 11°C 10°C
19/03/19 09:00 EIKY 190900Z 27011KT 240V300 9999 BKN008 OVC014 11/10 Q1025 W (270°) 12.7mph 11°C 10°C
19/03/19 08:30 EIKY 190830Z 25007KT 3800 BR BKN006 BKN011 OVC013 11/10 Q1025 BR WSW (250°) 8.1mph 11°C 10°C
19/03/19 08:00 EIKY 190800Z VRB02KT 9999 BKN008 OVC014 09/09 Q1024 N (0°) 2.3mph 9°C 9°C
19/03/19 07:00 EIKY 190700Z VRB02KT 9999 BKN008 OVC014 09/08 Q1024 N (0°) 2.3mph 9°C 8°C
19/03/19 06:30 EIKY 190630Z 10002KT 8000 BKN010 OVC014 09/08 Q1024 E (100°) 2.3mph 9°C 8°C
19/03/19 06:00 EIKY 190600Z VRB01KT 9999 OVC010 09/08 Q1024 N (0°) 1.2mph 9°C 8°C
18/03/19 19:30 EIKY 181930Z 31006KT 250V340 9999 SCT034 09/06 Q1025 NW (310°) 6.9mph 9°C 6°C
18/03/19 19:00 EIKY 181900Z 29006KT 250V330 9999 FEW031 BKN040 09/06 Q1025 WNW (290°) 6.9mph 9°C 6°C
18/03/19 18:30 EIKY 181830Z 29005KT 240V330 9999 SCT028 BKN045 09/06 Q1025 WNW (290°) 5.8mph 9°C 6°C
18/03/19 18:00 EIKY 181800Z 29006KT 260V340 9999 FEW016 SCT033 10/07 Q1025 WNW (290°) 6.9mph 10°C 7°C
18/03/19 17:30 EIKY 181730Z 30008KT 260V330 9999 SCT019 BKN033 10/07 Q1025 WNW (300°) 9.2mph 10°C 7°C
18/03/19 17:00 EIKY 181700Z 30009KT 260V330 9999 FEW019 SCT024 10/06 Q1024 WNW (300°) 10.4mph 10°C 6°C
18/03/19 16:30 EIKY 181630Z 30010G20KT 250V330 9999 SCT023 11/07 Q1024 WNW (300°) 11.5mph 23.0mph 11°C 7°C
18/03/19 16:00 EIKY 181600Z 30010G20KT 270V340 9999 FEW023 11/07 Q1024 WNW (300°) 11.5mph 23.0mph 11°C 7°C
18/03/19 15:30 EIKY 181530Z 30010KT 270V340 9999 SCT026 10/07 Q1024 WNW (300°) 11.5mph 10°C 7°C
18/03/19 15:00 EIKY 181500Z 30011KT 260V330 9999 SCT024 11/07 Q1024 WNW (300°) 12.7mph 11°C 7°C
18/03/19 14:30 EIKY 181430Z 30012KT 260V330 9999 FEW019 BKN024 11/07 Q1023 WNW (300°) 13.8mph 11°C 7°C
18/03/19 14:00 EIKY 181400Z 30012KT 260V340 9999 FEW022 BKN042 10/07 Q1024 WNW (300°) 13.8mph 10°C 7°C
18/03/19 13:30 EIKY 181330Z 29011KT 250V320 9999 BKN020 OVC041 10/07 Q1024 WNW (290°) 12.7mph 10°C 7°C
18/03/19 13:00 EIKY 181300Z 29009KT 260V330 9999 FEW014 SCT026 BKN037 10/06 Q1024 WNW (290°) 10.4mph 10°C 6°C
18/03/19 12:30 EIKY 181230Z 29009KT 260V330 9999 FEW013 SCT028 BKN036 10/06 Q1024 WNW (290°) 10.4mph 10°C 6°C
18/03/19 12:00 EIKY 181200Z 30010KT 270V330 9999 -RA FEW013 SCT028 BKN034 10/06 Q1023 -RA WNW (300°) 11.5mph 10°C 6°C
18/03/19 11:30 EIKY 181130Z 29010KT 250V340 9999 -RA FEW013 SCT019 BKN025 10/07 Q1023 -RA WNW (290°) 11.5mph 10°C 7°C
18/03/19 11:00 EIKY 181100Z 29008KT 240V320 9999 -RA FEW015 SCT024 BKN034 09/07 Q1023 -RA WNW (290°) 9.2mph 9°C 7°C
18/03/19 10:30 EIKY 181030Z 30010KT 270V330 9999 -RA FEW010 SCT014 BKN020 09/07 Q1023 -RA WNW (300°) 11.5mph 9°C 7°C
18/03/19 10:00 EIKY 181000Z 28007KT 250V320 9999 -RA FEW014 BKN017 09/07 Q1023 -RA W (280°) 8.1mph 9°C 7°C
18/03/19 09:30 EIKY 180930Z 27007KT 240V310 5000 -RA BR BKN017 OVC024 08/07 Q1023 -RA BR W (270°) 8.1mph 8°C 7°C
18/03/19 09:00 EIKY 180900Z 28006KT 240V310 9999 SCT013 BKN024 BKN033 08/06 Q1022 W (280°) 6.9mph 8°C 6°C
18/03/19 08:30 EIKY 180830Z 29008KT 260V320 9999 -RA SCT013 BKN024 BKN032 08/06 Q1022 -RA WNW (290°) 9.2mph 8°C 6°C
18/03/19 08:00 EIKY 180800Z 27006KT 250V310 9999 -RA BKN013 BKN024 08/06 Q1022 -RA W (270°) 6.9mph 8°C 6°C
18/03/19 07:30 EIKY 180730Z 29006KT 250V310 9999 -RA FEW021 BKN024 07/06 Q1022 -RA WNW (290°) 6.9mph 7°C 6°C
18/03/19 07:00 EIKY 180700Z 28006KT 240V310 9999 -RA OVC024 07/06 Q1022 -RA W (280°) 6.9mph 7°C 6°C
18/03/19 03:30 EIKY 180330Z 25008KT 9999 -RA BKN030 07/04 Q1021 -RA WSW (250°) 9.2mph 7°C 4°C
17/03/19 19:30 EIKY 171930Z 31007KT 280V340 9999 SCT025 07/03 Q1020 NW (310°) 8.1mph 7°C 3°C
17/03/19 19:00 EIKY 171900Z 31009KT 270V330 9999 SCT027 08/04 Q1020 NW (310°) 10.4mph 8°C 4°C
17/03/19 18:30 EIKY 171830Z 31009KT 9999 SCT044 08/03 Q1020 NW (310°) 10.4mph 8°C 3°C
17/03/19 18:00 EIKY 171800Z 30010KT 270V340 9999 BKN043 08/02 Q1019 WNW (300°) 11.5mph 8°C 2°C
17/03/19 17:30 EIKY 171730Z 30011KT 270V330 9999 SCT030 BKN044 09/03 Q1019 WNW (300°) 12.7mph 9°C 3°C
17/03/19 17:00 EIKY 171700Z 31011KT 270V340 9999 BKN032 BKN046 09/03 Q1018 NW (310°) 12.7mph 9°C 3°C
17/03/19 16:30 EIKY 171630Z 30010KT 270V330 9999 -RA FEW030 SCT040 BKN046 09/03 Q1018 -RA WNW (300°) 11.5mph 9°C 3°C